sensor_id;sensor_type;location;lat;lon;timestamp;temperature;humidity
5059;DHT22;2548;52.050;11.036;2023-02-01T00:00:09;4.90;99.90
5059;DHT22;2548;52.050;11.036;2023-02-01T00:02:39;4.90;99.90
5059;DHT22;2548;52.050;11.036;2023-02-01T00:05:07;4.90;99.90
5059;DHT22;2548;52.050;11.036;2023-02-01T00:07:35;4.90;99.90
5059;DHT22;2548;52.050;11.036;2023-02-01T00:10:04;4.80;99.90
5059;DHT22;2548;52.050;11.036;2023-02-01T00:12:32;4.80;99.90
5059;DHT22;2548;52.050;11.036;2023-02-01T00:14:59;4.80;99.90
5059;DHT22;2548;52.050;11.036;2023-02-01T00:17:27;4.80;99.90
5059;DHT22;2548;52.050;11.036;2023-02-01T00:19:56;4.80;99.90
5059;DHT22;2548;52.050;11.036;2023-02-01T00:22:24;4.80;99.90
5059;DHT22;2548;52.050;11.036;2023-02-01T00:24:52;4.80;99.90
5059;DHT22;2548;52.050;11.036;2023-02-01T00:27:19;4.80;99.90
5059;DHT22;2548;52.050;11.036;2023-02-01T00:29:47;4.80;99.90
5059;DHT22;2548;52.050;11.036;2023-02-01T00:32:14;4.80;99.90
5059;DHT22;2548;52.050;11.036;2023-02-01T00:34:42;4.80;99.90
5059;DHT22;2548;52.050;11.036;2023-02-01T00:37:11;4.80;99.90
5059;DHT22;2548;52.050;11.036;2023-02-01T00:39:38;4.80;99.90
5059;DHT22;2548;52.050;11.036;2023-02-01T00:42:06;4.80;99.90
5059;DHT22;2548;52.050;11.036;2023-02-01T00:44:33;4.80;99.90
5059;DHT22;2548;52.050;11.036;2023-02-01T00:47:01;4.80;99.90
5059;DHT22;2548;52.050;11.036;2023-02-01T00:49:29;4.80;99.90
5059;DHT22;2548;52.050;11.036;2023-02-01T00:51:56;4.80;99.90
5059;DHT22;2548;52.050;11.036;2023-02-01T00:54:25;4.80;99.90
5059;DHT22;2548;52.050;11.036;2023-02-01T00:56:53;4.70;99.90
5059;DHT22;2548;52.050;11.036;2023-02-01T00:59:20;4.70;99.90
5059;DHT22;2548;52.050;11.036;2023-02-01T01:01:48;4.70;99.90
5059;DHT22;2548;52.050;11.036;2023-02-01T01:04:15;4.70;99.90
5059;DHT22;2548;52.050;11.036;2023-02-01T01:06:43;4.70;99.90
5059;DHT22;2548;52.050;11.036;2023-02-01T01:09:10;4.70;99.90
5059;DHT22;2548;52.050;11.036;2023-02-01T01:11:39;4.70;99.90
5059;DHT22;2548;52.050;11.036;2023-02-01T01:14:07;4.70;99.90
5059;DHT22;2548;52.050;11.036;2023-02-01T01:16:35;4.70;99.90
5059;DHT22;2548;52.050;11.036;2023-02-01T01:19:03;4.60;99.90
5059;DHT22;2548;52.050;11.036;2023-02-01T01:21:31;4.70;99.90
5059;DHT22;2548;52.050;11.036;2023-02-01T01:23:58;4.70;99.90
5059;DHT22;2548;52.050;11.036;2023-02-01T01:26:27;4.70;99.90
5059;DHT22;2548;52.050;11.036;2023-02-01T01:28:57;4.70;99.90
5059;DHT22;2548;52.050;11.036;2023-02-01T01:31:25;4.70;99.90
5059;DHT22;2548;52.050;11.036;2023-02-01T01:33:56;4.70;99.90
5059;DHT22;2548;52.050;11.036;2023-02-01T01:36:24;4.70;99.90
5059;DHT22;2548;52.050;11.036;2023-02-01T01:38:52;4.70;99.90
5059;DHT22;2548;52.050;11.036;2023-02-01T01:41:22;4.70;99.90
5059;DHT22;2548;52.050;11.036;2023-02-01T01:43:53;4.70;99.90
5059;DHT22;2548;52.050;11.036;2023-02-01T01:46:25;4.70;99.90
5059;DHT22;2548;52.050;11.036;2023-02-01T01:49:00;4.70;99.90
5059;DHT22;2548;52.050;11.036;2023-02-01T01:51:30;4.70;99.90
5059;DHT22;2548;52.050;11.036;2023-02-01T01:54:02;4.70;99.90
5059;DHT22;2548;52.050;11.036;2023-02-01T01:56:33;4.70;99.90
5059;DHT22;2548;52.050;11.036;2023-02-01T01:59:02;4.70;99.90
5059;DHT22;2548;52.050;11.036;2023-02-01T02:01:32;4.60;99.90
5059;DHT22;2548;52.050;11.036;2023-02-01T02:04:00;4.60;99.90
5059;DHT22;2548;52.050;11.036;2023-02-01T02:06:37;4.60;99.90
5059;DHT22;2548;52.050;11.036;2023-02-01T02:09:06;4.60;99.90
5059;DHT22;2548;52.050;11.036;2023-02-01T02:11:34;4.60;99.90
5059;DHT22;2548;52.050;11.036;2023-02-01T02:14:01;4.60;99.90
5059;DHT22;2548;52.050;11.036;2023-02-01T02:16:52;4.70;99.90
5059;DHT22;2548;52.050;11.036;2023-02-01T02:19:47;4.70;99.90
5059;DHT22;2548;52.050;11.036;2023-02-01T02:22:46;4.70;99.90
5059;DHT22;2548;52.050;11.036;2023-02-01T02:25:32;4.70;99.90
5059;DHT22;2548;52.050;11.036;2023-02-01T02:28:18;4.60;99.90
5059;DHT22;2548;52.050;11.036;2023-02-01T02:31:14;4.60;99.90
5059;DHT22;2548;52.050;11.036;2023-02-01T02:33:57;4.60;99.90
5059;DHT22;2548;52.050;11.036;2023-02-01T02:36:37;4.60;99.90
5059;DHT22;2548;52.050;11.036;2023-02-01T02:39:08;4.60;99.90
5059;DHT22;2548;52.050;11.036;2023-02-01T02:41:48;4.60;99.90
5059;DHT22;2548;52.050;11.036;2023-02-01T02:44:44;4.60;99.90
5059;DHT22;2548;52.050;11.036;2023-02-01T02:47:35;4.60;99.90
5059;DHT22;2548;52.050;11.036;2023-02-01T02:50:16;4.60;99.90
5059;DHT22;2548;52.050;11.036;2023-02-01T02:53:09;4.60;99.90
5059;DHT22;2548;52.050;11.036;2023-02-01T02:55:57;4.60;99.90
5059;DHT22;2548;52.050;11.036;2023-02-01T02:58:45;4.60;99.90
5059;DHT22;2548;52.050;11.036;2023-02-01T03:01:32;4.60;99.90
5059;DHT22;2548;52.050;11.036;2023-02-01T03:04:17;4.60;99.90
5059;DHT22;2548;52.050;11.036;2023-02-01T03:06:49;4.70;99.90
5059;DHT22;2548;52.050;11.036;2023-02-01T03:09:22;4.60;99.90
5059;DHT22;2548;52.050;11.036;2023-02-01T03:11:57;4.70;99.90
5059;DHT22;2548;52.050;11.036;2023-02-01T03:14:46;4.70;99.90
5059;DHT22;2548;52.050;11.036;2023-02-01T03:17:18;4.70;99.90
5059;DHT22;2548;52.050;11.036;2023-02-01T03:19:48;4.70;99.90
5059;DHT22;2548;52.050;11.036;2023-02-01T03:22:21;4.70;99.90
5059;DHT22;2548;52.050;11.036;2023-02-01T03:24:52;4.70;99.90
5059;DHT22;2548;52.050;11.036;2023-02-01T03:27:24;4.70;99.90
5059;DHT22;2548;52.050;11.036;2023-02-01T03:29:58;4.60;99.90
5059;DHT22;2548;52.050;11.036;2023-02-01T03:32:27;4.70;99.90
5059;DHT22;2548;52.050;11.036;2023-02-01T03:34:55;4.70;99.90
5059;DHT22;2548;52.050;11.036;2023-02-01T03:37:26;4.70;99.90
5059;DHT22;2548;52.050;11.036;2023-02-01T03:39:58;4.70;99.90
5059;DHT22;2548;52.050;11.036;2023-02-01T03:42:32;4.70;99.90
5059;DHT22;2548;52.050;11.036;2023-02-01T03:45:06;4.70;99.90
5059;DHT22;2548;52.050;11.036;2023-02-01T03:47:39;4.70;99.90
5059;DHT22;2548;52.050;11.036;2023-02-01T03:50:10;4.70;99.90
5059;DHT22;2548;52.050;11.036;2023-02-01T03:52:43;4.70;99.90
5059;DHT22;2548;52.050;11.036;2023-02-01T03:55:16;4.70;99.90
5059;DHT22;2548;52.050;11.036;2023-02-01T03:57:48;4.70;99.90
5059;DHT22;2548;52.050;11.036;2023-02-01T04:00:20;4.70;99.90
5059;DHT22;2548;52.050;11.036;2023-02-01T04:02:50;4.70;99.90
5059;DHT22;2548;52.050;11.036;2023-02-01T04:05:18;4.70;99.90
5059;DHT22;2548;52.050;11.036;2023-02-01T04:07:55;4.70;99.90
5059;DHT22;2548;52.050;11.036;2023-02-01T04:10:22;4.70;99.90
5059;DHT22;2548;52.050;11.036;2023-02-01T04:12:50;4.70;99.90
5059;DHT22;2548;52.050;11.036;2023-02-01T04:15:18;4.80;99.90
5059;DHT22;2548;52.050;11.036;2023-02-01T04:17:45;4.80;99.90
5059;DHT22;2548;52.050;11.036;2023-02-01T04:20:13;4.80;99.90
5059;DHT22;2548;52.050;11.036;2023-02-01T04:22:40;4.80;99.90
5059;DHT22;2548;52.050;11.036;2023-02-01T04:25:09;4.80;99.90
5059;DHT22;2548;52.050;11.036;2023-02-01T04:27:37;4.80;99.90
5059;DHT22;2548;52.050;11.036;2023-02-01T04:30:06;4.80;99.90
5059;DHT22;2548;52.050;11.036;2023-02-01T04:32:35;4.80;99.90
5059;DHT22;2548;52.050;11.036;2023-02-01T04:35:03;4.80;99.90
5059;DHT22;2548;52.050;11.036;2023-02-01T04:37:31;4.80;99.90
5059;DHT22;2548;52.050;11.036;2023-02-01T04:39:58;4.80;99.90
5059;DHT22;2548;52.050;11.036;2023-02-01T04:42:27;4.80;99.90
5059;DHT22;2548;52.050;11.036;2023-02-01T04:44:54;4.70;99.90
5059;DHT22;2548;52.050;11.036;2023-02-01T04:47:22;4.70;99.90
5059;DHT22;2548;52.050;11.036;2023-02-01T04:49:49;4.70;99.90
5059;DHT22;2548;52.050;11.036;2023-02-01T04:52:17;4.70;99.90
5059;DHT22;2548;52.050;11.036;2023-02-01T04:54:44;4.70;99.90
5059;DHT22;2548;52.050;11.036;2023-02-01T04:57:12;4.70;99.90
5059;DHT22;2548;52.050;11.036;2023-02-01T04:59:42;4.60;99.90
5059;DHT22;2548;52.050;11.036;2023-02-01T05:02:09;4.60;99.90
5059;DHT22;2548;52.050;11.036;2023-02-01T05:04:37;4.60;99.90
5059;DHT22;2548;52.050;11.036;2023-02-01T05:07:04;4.50;99.90
5059;DHT22;2548;52.050;11.036;2023-02-01T05:09:32;4.50;99.90
5059;DHT22;2548;52.050;11.036;2023-02-01T05:11:59;4.40;99.90
5059;DHT22;2548;52.050;11.036;2023-02-01T05:14:45;4.40;99.90
5059;DHT22;2548;52.050;11.036;2023-02-01T05:17:13;4.40;99.90
5059;DHT22;2548;52.050;11.036;2023-02-01T05:19:41;4.30;99.90
5059;DHT22;2548;52.050;11.036;2023-02-01T05:22:08;4.30;99.90
5059;DHT22;2548;52.050;11.036;2023-02-01T05:24:36;4.30;99.90
5059;DHT22;2548;52.050;11.036;2023-02-01T05:27:04;4.30;99.90
5059;DHT22;2548;52.050;11.036;2023-02-01T05:29:32;4.30;99.90
5059;DHT22;2548;52.050;11.036;2023-02-01T05:32:01;4.20;99.90
5059;DHT22;2548;52.050;11.036;2023-02-01T05:34:28;4.20;99.90
5059;DHT22;2548;52.050;11.036;2023-02-01T05:36:56;4.20;99.90
5059;DHT22;2548;52.050;11.036;2023-02-01T05:39:23;4.20;99.90
5059;DHT22;2548;52.050;11.036;2023-02-01T05:41:51;4.30;99.90
5059;DHT22;2548;52.050;11.036;2023-02-01T05:44:18;4.30;99.90
5059;DHT22;2548;52.050;11.036;2023-02-01T05:46:45;4.30;99.90
5059;DHT22;2548;52.050;11.036;2023-02-01T05:49:14;4.40;99.90
5059;DHT22;2548;52.050;11.036;2023-02-01T05:51:42;4.40;99.90
5059;DHT22;2548;52.050;11.036;2023-02-01T05:54:09;4.40;99.90
5059;DHT22;2548;52.050;11.036;2023-02-01T05:56:37;4.40;99.90
5059;DHT22;2548;52.050;11.036;2023-02-01T05:59:04;4.50;99.90
5059;DHT22;2548;52.050;11.036;2023-02-01T06:01:32;4.50;99.90
5059;DHT22;2548;52.050;11.036;2023-02-01T06:03:59;4.50;99.90
5059;DHT22;2548;52.050;11.036;2023-02-01T06:06:28;4.40;99.90
5059;DHT22;2548;52.050;11.036;2023-02-01T06:08:56;4.40;99.90
5059;DHT22;2548;52.050;11.036;2023-02-01T06:11:24;4.40;99.90
5059;DHT22;2548;52.050;11.036;2023-02-01T06:13:51;4.50;99.90
5059;DHT22;2548;52.050;11.036;2023-02-01T06:16:19;4.50;99.90
5059;DHT22;2548;52.050;11.036;2023-02-01T06:18:46;4.50;99.90
5059;DHT22;2548;52.050;11.036;2023-02-01T06:21:14;4.50;99.90
5059;DHT22;2548;52.050;11.036;2023-02-01T06:23:51;4.50;99.90
5059;DHT22;2548;52.050;11.036;2023-02-01T06:26:18;4.40;99.90
5059;DHT22;2548;52.050;11.036;2023-02-01T06:28:46;4.50;99.90
5059;DHT22;2548;52.050;11.036;2023-02-01T06:31:13;4.50;99.90
5059;DHT22;2548;52.050;11.036;2023-02-01T06:33:42;4.40;99.90
5059;DHT22;2548;52.050;11.036;2023-02-01T06:36:10;4.40;99.90
5059;DHT22;2548;52.050;11.036;2023-02-01T06:38:39;4.40;99.90
5059;DHT22;2548;52.050;11.036;2023-02-01T06:41:09;4.40;99.90
5059;DHT22;2548;52.050;11.036;2023-02-01T06:43:37;4.40;99.90
5059;DHT22;2548;52.050;11.036;2023-02-01T06:46:06;4.40;99.90
5059;DHT22;2548;52.050;11.036;2023-02-01T06:48:34;4.40;99.90
5059;DHT22;2548;52.050;11.036;2023-02-01T06:51:01;4.40;99.90
5059;DHT22;2548;52.050;11.036;2023-02-01T06:53:29;4.50;99.90
5059;DHT22;2548;52.050;11.036;2023-02-01T06:55:58;4.50;99.90
5059;DHT22;2548;52.050;11.036;2023-02-01T06:58:29;4.60;99.90
5059;DHT22;2548;52.050;11.036;2023-02-01T07:00:57;4.60;99.90
5059;DHT22;2548;52.050;11.036;2023-02-01T07:03:25;4.60;99.90
5059;DHT22;2548;52.050;11.036;2023-02-01T07:05:55;4.60;99.90
5059;DHT22;2548;52.050;11.036;2023-02-01T07:08:23;4.60;99.90
5059;DHT22;2548;52.050;11.036;2023-02-01T07:10:50;4.60;99.90
5059;DHT22;2548;52.050;11.036;2023-02-01T07:13:17;4.60;99.90
5059;DHT22;2548;52.050;11.036;2023-02-01T07:15:46;4.70;99.90
5059;DHT22;2548;52.050;11.036;2023-02-01T07:18:14;4.60;99.90
5059;DHT22;2548;52.050;11.036;2023-02-01T07:20:41;4.70;99.90
5059;DHT22;2548;52.050;11.036;2023-02-01T07:23:09;4.70;99.90
5059;DHT22;2548;52.050;11.036;2023-02-01T07:25:37;4.70;99.90
5059;DHT22;2548;52.050;11.036;2023-02-01T07:28:04;4.70;99.90
5059;DHT22;2548;52.050;11.036;2023-02-01T07:30:32;4.70;99.90
5059;DHT22;2548;52.050;11.036;2023-02-01T07:33:01;4.70;99.90
5059;DHT22;2548;52.050;11.036;2023-02-01T07:35:28;4.60;99.90
5059;DHT22;2548;52.050;11.036;2023-02-01T07:37:57;4.60;99.90
5059;DHT22;2548;52.050;11.036;2023-02-01T07:40:25;4.60;99.90
5059;DHT22;2548;52.050;11.036;2023-02-01T07:42:54;4.50;99.90
5059;DHT22;2548;52.050;11.036;2023-02-01T07:45:22;4.50;99.90
5059;DHT22;2548;52.050;11.036;2023-02-01T07:47:52;4.50;99.90
5059;DHT22;2548;52.050;11.036;2023-02-01T07:50:20;4.50;99.90
5059;DHT22;2548;52.050;11.036;2023-02-01T07:52:48;4.40;99.90
5059;DHT22;2548;52.050;11.036;2023-02-01T07:55:15;4.40;99.90
5059;DHT22;2548;52.050;11.036;2023-02-01T07:57:43;4.40;99.90
5059;DHT22;2548;52.050;11.036;2023-02-01T08:00:11;4.40;99.90
5059;DHT22;2548;52.050;11.036;2023-02-01T08:02:57;4.40;99.90
5059;DHT22;2548;52.050;11.036;2023-02-01T08:05:26;4.40;99.90
5059;DHT22;2548;52.050;11.036;2023-02-01T08:07:54;4.40;99.90
5059;DHT22;2548;52.050;11.036;2023-02-01T08:10:21;4.40;99.90
5059;DHT22;2548;52.050;11.036;2023-02-01T08:12:49;4.40;99.90
5059;DHT22;2548;52.050;11.036;2023-02-01T08:15:18;4.50;99.90
5059;DHT22;2548;52.050;11.036;2023-02-01T08:17:48;4.50;99.90
5059;DHT22;2548;52.050;11.036;2023-02-01T08:20:16;4.50;99.90
5059;DHT22;2548;52.050;11.036;2023-02-01T08:22:45;4.60;99.90
5059;DHT22;2548;52.050;11.036;2023-02-01T08:25:13;4.60;99.90
5059;DHT22;2548;52.050;11.036;2023-02-01T08:27:40;4.60;99.90
5059;DHT22;2548;52.050;11.036;2023-02-01T08:30:09;4.60;99.90
5059;DHT22;2548;52.050;11.036;2023-02-01T08:32:36;4.60;99.90
5059;DHT22;2548;52.050;11.036;2023-02-01T08:35:04;4.70;99.90
5059;DHT22;2548;52.050;11.036;2023-02-01T08:37:32;4.70;99.90
5059;DHT22;2548;52.050;11.036;2023-02-01T08:40:01;4.80;99.90
5059;DHT22;2548;52.050;11.036;2023-02-01T08:42:28;4.80;99.90
5059;DHT22;2548;52.050;11.036;2023-02-01T08:45:13;4.80;99.90
5059;DHT22;2548;52.050;11.036;2023-02-01T08:47:41;4.80;99.90
5059;DHT22;2548;52.050;11.036;2023-02-01T08:50:09;4.80;99.90
5059;DHT22;2548;52.050;11.036;2023-02-01T08:52:37;4.80;99.90
5059;DHT22;2548;52.050;11.036;2023-02-01T08:55:07;4.80;99.90
5059;DHT22;2548;52.050;11.036;2023-02-01T08:57:34;4.80;99.90
5059;DHT22;2548;52.050;11.036;2023-02-01T09:00:03;4.80;99.90
5059;DHT22;2548;52.050;11.036;2023-02-01T09:02:31;4.80;99.90
5059;DHT22;2548;52.050;11.036;2023-02-01T09:04:58;4.80;99.90
5059;DHT22;2548;52.050;11.036;2023-02-01T09:07:26;4.90;99.90
5059;DHT22;2548;52.050;11.036;2023-02-01T09:09:53;4.80;99.90
5059;DHT22;2548;52.050;11.036;2023-02-01T09:12:23;4.80;99.90
5059;DHT22;2548;52.050;11.036;2023-02-01T09:14:51;4.80;99.90
5059;DHT22;2548;52.050;11.036;2023-02-01T09:17:18;4.80;99.90
5059;DHT22;2548;52.050;11.036;2023-02-01T09:19:46;4.90;99.90
5059;DHT22;2548;52.050;11.036;2023-02-01T09:22:14;4.80;99.90
5059;DHT22;2548;52.050;11.036;2023-02-01T09:24:42;4.90;99.90
5059;DHT22;2548;52.050;11.036;2023-02-01T09:27:09;4.90;99.90
5059;DHT22;2548;52.050;11.036;2023-02-01T09:29:38;5.00;99.90
5059;DHT22;2548;52.050;11.036;2023-02-01T09:32:06;5.10;99.90
5059;DHT22;2548;52.050;11.036;2023-02-01T09:34:34;5.10;99.90
5059;DHT22;2548;52.050;11.036;2023-02-01T09:37:02;5.10;99.90
5059;DHT22;2548;52.050;11.036;2023-02-01T09:39:29;5.20;99.90
5059;DHT22;2548;52.050;11.036;2023-02-01T09:42:07;5.30;99.90
5059;DHT22;2548;52.050;11.036;2023-02-01T09:45:02;5.30;99.90
5059;DHT22;2548;52.050;11.036;2023-02-01T09:47:31;5.40;99.90
5059;DHT22;2548;52.050;11.036;2023-02-01T09:50:02;5.40;99.90
5059;DHT22;2548;52.050;11.036;2023-02-01T09:52:40;5.50;99.90
5059;DHT22;2548;52.050;11.036;2023-02-01T09:55:13;5.50;99.90
5059;DHT22;2548;52.050;11.036;2023-02-01T09:57:48;5.70;99.90
5059;DHT22;2548;52.050;11.036;2023-02-01T10:00:22;5.80;99.90
5059;DHT22;2548;52.050;11.036;2023-02-01T10:02:51;5.80;99.90
5059;DHT22;2548;52.050;11.036;2023-02-01T10:05:33;5.80;99.90
5059;DHT22;2548;52.050;11.036;2023-02-01T10:08:10;5.90;99.90
5059;DHT22;2548;52.050;11.036;2023-02-01T10:10:44;6.00;99.90
5059;DHT22;2548;52.050;11.036;2023-02-01T10:13:41;6.20;99.90
5059;DHT22;2548;52.050;11.036;2023-02-01T10:16:18;6.30;99.90
5059;DHT22;2548;52.050;11.036;2023-02-01T10:18:57;6.30;99.90
5059;DHT22;2548;52.050;11.036;2023-02-01T10:21:36;6.30;99.90
5059;DHT22;2548;52.050;11.036;2023-02-01T10:24:20;6.40;99.90
5059;DHT22;2548;52.050;11.036;2023-02-01T10:26:55;6.40;99.90
5059;DHT22;2548;52.050;11.036;2023-02-01T10:29:27;6.30;99.90
5059;DHT22;2548;52.050;11.036;2023-02-01T10:31:58;6.30;99.90
5059;DHT22;2548;52.050;11.036;2023-02-01T10:34:28;6.20;99.90
5059;DHT22;2548;52.050;11.036;2023-02-01T10:37:00;6.10;99.90
5059;DHT22;2548;52.050;11.036;2023-02-01T10:39:28;6.00;99.90
5059;DHT22;2548;52.050;11.036;2023-02-01T10:41:56;6.00;99.90
5059;DHT22;2548;52.050;11.036;2023-02-01T10:44:26;5.90;99.90
5059;DHT22;2548;52.050;11.036;2023-02-01T10:46:54;5.90;99.90
5059;DHT22;2548;52.050;11.036;2023-02-01T10:49:33;5.90;99.90
5059;DHT22;2548;52.050;11.036;2023-02-01T10:52:11;6.00;99.90
5059;DHT22;2548;52.050;11.036;2023-02-01T10:54:40;6.10;99.90
5059;DHT22;2548;52.050;11.036;2023-02-01T10:57:08;6.10;99.90
5059;DHT22;2548;52.050;11.036;2023-02-01T10:59:36;6.20;99.90
5059;DHT22;2548;52.050;11.036;2023-02-01T11:02:15;6.20;99.90
5059;DHT22;2548;52.050;11.036;2023-02-01T11:04:46;6.30;99.90
5059;DHT22;2548;52.050;11.036;2023-02-01T11:07:17;6.40;99.90
5059;DHT22;2548;52.050;11.036;2023-02-01T11:09:50;6.50;99.90
5059;DHT22;2548;52.050;11.036;2023-02-01T11:12:28;6.50;99.90
5059;DHT22;2548;52.050;11.036;2023-02-01T11:15:13;6.60;99.90
5059;DHT22;2548;52.050;11.036;2023-02-01T11:17:43;6.60;99.90
5059;DHT22;2548;52.050;11.036;2023-02-01T11:20:16;6.60;99.90
5059;DHT22;2548;52.050;11.036;2023-02-01T11:22:48;6.60;99.90
5059;DHT22;2548;52.050;11.036;2023-02-01T11:25:20;6.60;99.90
5059;DHT22;2548;52.050;11.036;2023-02-01T11:27:48;6.50;99.90
5059;DHT22;2548;52.050;11.036;2023-02-01T11:30:18;6.50;99.90
5059;DHT22;2548;52.050;11.036;2023-02-01T11:32:47;6.50;99.90
5059;DHT22;2548;52.050;11.036;2023-02-01T11:35:19;6.50;99.90
5059;DHT22;2548;52.050;11.036;2023-02-01T11:37:52;6.50;99.90
5059;DHT22;2548;52.050;11.036;2023-02-01T11:40:27;6.50;99.90
5059;DHT22;2548;52.050;11.036;2023-02-01T11:42:58;6.50;99.90
5059;DHT22;2548;52.050;11.036;2023-02-01T11:45:27;6.40;99.90
5059;DHT22;2548;52.050;11.036;2023-02-01T11:47:56;6.40;99.90
5059;DHT22;2548;52.050;11.036;2023-02-01T11:50:31;6.40;99.90
5059;DHT22;2548;52.050;11.036;2023-02-01T11:53:25;6.40;99.90
5059;DHT22;2548;52.050;11.036;2023-02-01T11:56:05;6.40;99.90
5059;DHT22;2548;52.050;11.036;2023-02-01T11:58:56;6.40;99.90
5059;DHT22;2548;52.050;11.036;2023-02-01T12:01:38;6.40;99.90
5059;DHT22;2548;52.050;11.036;2023-02-01T12:04:37;6.40;99.90
5059;DHT22;2548;52.050;11.036;2023-02-01T12:07:13;6.40;99.90
5059;DHT22;2548;52.050;11.036;2023-02-01T12:09:55;6.40;99.90
5059;DHT22;2548;52.050;11.036;2023-02-01T12:12:37;6.40;99.90
5059;DHT22;2548;52.050;11.036;2023-02-01T12:15:22;6.50;99.90
5059;DHT22;2548;52.050;11.036;2023-02-01T12:18:10;6.50;99.90
5059;DHT22;2548;52.050;11.036;2023-02-01T12:21:06;6.60;99.90
5059;DHT22;2548;52.050;11.036;2023-02-01T12:24:00;6.60;99.90
5059;DHT22;2548;52.050;11.036;2023-02-01T12:26:46;6.70;99.90
5059;DHT22;2548;52.050;11.036;2023-02-01T12:29:33;6.80;99.90
5059;DHT22;2548;52.050;11.036;2023-02-01T12:32:11;6.80;99.90
5059;DHT22;2548;52.050;11.036;2023-02-01T12:38:02;6.80;99.90
5059;DHT22;2548;52.050;11.036;2023-02-01T12:40:42;6.80;99.90
5059;DHT22;2548;52.050;11.036;2023-02-01T12:43:13;6.80;99.90
5059;DHT22;2548;52.050;11.036;2023-02-01T12:45:52;6.90;99.90
5059;DHT22;2548;52.050;11.036;2023-02-01T12:48:27;7.00;99.90
5059;DHT22;2548;52.050;11.036;2023-02-01T12:50:57;7.10;99.90
5059;DHT22;2548;52.050;11.036;2023-02-01T12:53:33;7.10;99.90
5059;DHT22;2548;52.050;11.036;2023-02-01T12:56:10;7.00;99.90
5059;DHT22;2548;52.050;11.036;2023-02-01T12:58:42;6.90;99.90
5059;DHT22;2548;52.050;11.036;2023-02-01T13:01:14;6.70;99.90
5059;DHT22;2548;52.050;11.036;2023-02-01T13:03:49;6.70;99.90
5059;DHT22;2548;52.050;11.036;2023-02-01T13:06:21;6.70;99.90
5059;DHT22;2548;52.050;11.036;2023-02-01T13:08:53;6.60;99.90
5059;DHT22;2548;52.050;11.036;2023-02-01T13:11:29;6.50;99.90
5059;DHT22;2548;52.050;11.036;2023-02-01T13:14:01;6.50;99.90
5059;DHT22;2548;52.050;11.036;2023-02-01T13:16:32;6.50;99.90
5059;DHT22;2548;52.050;11.036;2023-02-01T13:19:06;6.60;99.90
5059;DHT22;2548;52.050;11.036;2023-02-01T13:21:40;6.60;99.90
5059;DHT22;2548;52.050;11.036;2023-02-01T13:24:22;6.70;99.90
5059;DHT22;2548;52.050;11.036;2023-02-01T13:26:55;6.70;99.90
5059;DHT22;2548;52.050;11.036;2023-02-01T13:29:23;6.70;99.90
5059;DHT22;2548;52.050;11.036;2023-02-01T13:32:01;6.60;99.90
5059;DHT22;2548;52.050;11.036;2023-02-01T13:34:53;6.50;99.90
5059;DHT22;2548;52.050;11.036;2023-02-01T13:37:52;6.40;99.90
5059;DHT22;2548;52.050;11.036;2023-02-01T13:40:37;6.30;99.90
5059;DHT22;2548;52.050;11.036;2023-02-01T13:43:13;6.20;99.90
5059;DHT22;2548;52.050;11.036;2023-02-01T13:45:46;6.20;99.90
5059;DHT22;2548;52.050;11.036;2023-02-01T13:48:21;6.20;99.90
5059;DHT22;2548;52.050;11.036;2023-02-01T13:50:54;6.10;99.90
5059;DHT22;2548;52.050;11.036;2023-02-01T13:53:26;6.10;99.90
5059;DHT22;2548;52.050;11.036;2023-02-01T13:55:58;6.10;99.90
5059;DHT22;2548;52.050;11.036;2023-02-01T13:58:33;6.10;99.90
5059;DHT22;2548;52.050;11.036;2023-02-01T14:01:33;6.10;99.90
5059;DHT22;2548;52.050;11.036;2023-02-01T14:04:03;6.10;99.90
5059;DHT22;2548;52.050;11.036;2023-02-01T14:06:43;6.10;99.90
5059;DHT22;2548;52.050;11.036;2023-02-01T14:09:17;6.00;99.90
5059;DHT22;2548;52.050;11.036;2023-02-01T14:11:50;6.00;99.90
5059;DHT22;2548;52.050;11.036;2023-02-01T14:14:41;5.90;99.90
5059;DHT22;2548;52.050;11.036;2023-02-01T14:17:36;5.80;99.90
5059;DHT22;2548;52.050;11.036;2023-02-01T14:23:15;5.50;99.90
5059;DHT22;2548;52.050;11.036;2023-02-01T14:25:44;5.40;99.90
5059;DHT22;2548;52.050;11.036;2023-02-01T14:28:22;5.30;99.90
5059;DHT22;2548;52.050;11.036;2023-02-01T14:30:53;5.20;99.90
5059;DHT22;2548;52.050;11.036;2023-02-01T14:33:23;5.10;99.90
5059;DHT22;2548;52.050;11.036;2023-02-01T14:36:05;5.10;99.90
5059;DHT22;2548;52.050;11.036;2023-02-01T14:38:35;4.80;99.90
5059;DHT22;2548;52.050;11.036;2023-02-01T14:41:31;4.50;99.90
5059;DHT22;2548;52.050;11.036;2023-02-01T14:44:28;4.20;99.90
5059;DHT22;2548;52.050;11.036;2023-02-01T14:47:31;4.10;99.90
5059;DHT22;2548;52.050;11.036;2023-02-01T14:50:25;4.10;99.90
5059;DHT22;2548;52.050;11.036;2023-02-01T14:55:52;3.80;99.90
5059;DHT22;2548;52.050;11.036;2023-02-01T14:58:32;3.70;99.90
5059;DHT22;2548;52.050;11.036;2023-02-01T15:01:03;3.50;99.90
5059;DHT22;2548;52.050;11.036;2023-02-01T15:03:41;3.40;99.90
5059;DHT22;2548;52.050;11.036;2023-02-01T15:06:23;3.30;99.90
5059;DHT22;2548;52.050;11.036;2023-02-01T15:08:54;3.30;99.90
5059;DHT22;2548;52.050;11.036;2023-02-01T15:11:23;3.20;99.90
5059;DHT22;2548;52.050;11.036;2023-02-01T15:13:52;3.10;99.90
5059;DHT22;2548;52.050;11.036;2023-02-01T15:16:22;3.10;99.90
5059;DHT22;2548;52.050;11.036;2023-02-01T15:19:07;3.10;99.90
5059;DHT22;2548;52.050;11.036;2023-02-01T15:21:46;3.10;99.90
5059;DHT22;2548;52.050;11.036;2023-02-01T15:24:18;3.10;99.90
5059;DHT22;2548;52.050;11.036;2023-02-01T15:26:46;3.10;99.90
5059;DHT22;2548;52.050;11.036;2023-02-01T15:29:14;3.10;99.90
5059;DHT22;2548;52.050;11.036;2023-02-01T15:31:44;3.00;99.90
5059;DHT22;2548;52.050;11.036;2023-02-01T15:34:13;3.00;99.90
5059;DHT22;2548;52.050;11.036;2023-02-01T15:36:41;3.00;99.90
5059;DHT22;2548;52.050;11.036;2023-02-01T15:39:22;3.00;99.90
5059;DHT22;2548;52.050;11.036;2023-02-01T15:41:54;3.00;99.90
5059;DHT22;2548;52.050;11.036;2023-02-01T15:44:33;2.90;99.90
5059;DHT22;2548;52.050;11.036;2023-02-01T15:47:11;3.00;99.90
5059;DHT22;2548;52.050;11.036;2023-02-01T15:49:41;3.00;99.90
5059;DHT22;2548;52.050;11.036;2023-02-01T15:52:24;3.00;99.90
5059;DHT22;2548;52.050;11.036;2023-02-01T15:54:56;3.00;99.90
5059;DHT22;2548;52.050;11.036;2023-02-01T15:57:26;3.00;99.90
5059;DHT22;2548;52.050;11.036;2023-02-01T15:59:59;3.00;99.90
5059;DHT22;2548;52.050;11.036;2023-02-01T16:02:32;3.10;99.90
5059;DHT22;2548;52.050;11.036;2023-02-01T16:05:02;3.20;99.90
5059;DHT22;2548;52.050;11.036;2023-02-01T16:07:31;3.20;99.90
5059;DHT22;2548;52.050;11.036;2023-02-01T16:10:00;3.20;99.90
5059;DHT22;2548;52.050;11.036;2023-02-01T16:12:34;3.20;99.90
5059;DHT22;2548;52.050;11.036;2023-02-01T16:15:02;3.20;99.90
5059;DHT22;2548;52.050;11.036;2023-02-01T16:17:31;3.10;99.90
5059;DHT22;2548;52.050;11.036;2023-02-01T16:19:58;3.10;99.90
5059;DHT22;2548;52.050;11.036;2023-02-01T16:22:27;3.10;99.90
5059;DHT22;2548;52.050;11.036;2023-02-01T16:24:55;3.10;99.90
5059;DHT22;2548;52.050;11.036;2023-02-01T16:27:23;3.10;99.90
5059;DHT22;2548;52.050;11.036;2023-02-01T16:29:50;3.10;99.90
5059;DHT22;2548;52.050;11.036;2023-02-01T16:32:22;3.10;99.90
5059;DHT22;2548;52.050;11.036;2023-02-01T16:34:49;3.00;99.90
5059;DHT22;2548;52.050;11.036;2023-02-01T16:37:21;3.00;99.90
5059;DHT22;2548;52.050;11.036;2023-02-01T16:39:50;3.00;99.90
5059;DHT22;2548;52.050;11.036;2023-02-01T16:42:17;3.10;99.90
5059;DHT22;2548;52.050;11.036;2023-02-01T16:44:45;3.10;99.90